createdAt,value
2022-10-04T00:01:56.529Z,5.80
2022-10-04T00:04:30.171Z,5.70
2022-10-04T00:07:04.608Z,5.60
2022-10-04T00:09:38.515Z,5.40
2022-10-04T00:12:09.674Z,5.20
2022-10-04T00:14:41.459Z,5.10
2022-10-04T00:17:15.525Z,5.00
2022-10-04T00:19:48.546Z,4.80
2022-10-04T00:22:26.739Z,4.80
2022-10-04T00:25:20.394Z,4.70
2022-10-04T00:28:29.461Z,4.50
2022-10-04T00:31:23.683Z,4.30
2022-10-04T00:33:57.914Z,4.20
2022-10-04T00:36:50.690Z,4.10
2022-10-04T00:39:28.286Z,4.10
2022-10-04T00:42:09.087Z,4.10
2022-10-04T00:44:45.450Z,4.10
2022-10-04T00:47:32.279Z,4.10
2022-10-04T00:50:16.524Z,4.00
2022-10-04T00:52:50.520Z,4.00
2022-10-04T00:55:31.915Z,4.00
2022-10-04T00:58:04.850Z,4.00
2022-10-04T01:00:35.945Z,3.90
2022-10-04T01:03:09.825Z,3.80
2022-10-04T01:05:45.702Z,3.80
2022-10-04T01:08:18.621Z,3.70
2022-10-04T01:10:52.308Z,3.80
2022-10-04T01:13:25.450Z,3.80
2022-10-04T01:16:01.684Z,3.70
2022-10-04T01:18:34.227Z,3.60
2022-10-04T01:21:10.612Z,3.50
2022-10-04T01:23:45.004Z,3.40
2022-10-04T01:26:44.105Z,3.40
2022-10-04T01:29:17.627Z,3.30
2022-10-04T01:31:49.518Z,3.30
2022-10-04T01:34:21.273Z,3.20
2022-10-04T01:36:53.458Z,3.20
2022-10-04T01:39:26.792Z,3.20
2022-10-04T01:42:00.786Z,3.10
2022-10-04T01:44:36.343Z,3.00
2022-10-04T01:47:14.085Z,2.90
2022-10-04T01:49:46.700Z,2.80
2022-10-04T01:52:24.462Z,3.00
2022-10-04T01:55:04.669Z,3.10
2022-10-04T01:57:39.698Z,3.10
2022-10-04T02:00:11.786Z,3.10
2022-10-04T02:02:47.434Z,3.20
2022-10-04T02:05:22.247Z,3.10
2022-10-04T02:07:53.136Z,2.90
2022-10-04T02:10:27.573Z,2.90
2022-10-04T02:12:59.324Z,2.80
2022-10-04T02:15:29.965Z,2.70
2022-10-04T02:18:00.713Z,2.70
2022-10-04T02:20:30.976Z,2.50
2022-10-04T02:23:03.933Z,2.50
2022-10-04T02:25:38.264Z,2.60
2022-10-04T02:28:13.851Z,2.50
2022-10-04T02:31:07.159Z,2.40
2022-10-04T02:33:41.137Z,2.40
2022-10-04T02:36:12.599Z,2.40
2022-10-04T02:38:46.725Z,2.40
2022-10-04T02:41:25.467Z,2.30
2022-10-04T02:44:00.159Z,2.20
2022-10-04T02:46:35.669Z,2.20
2022-10-04T02:49:13.033Z,2.10
2022-10-04T02:51:47.364Z,2.10
2022-10-04T02:54:25.053Z,2.00
2022-10-04T02:56:58.703Z,1.90
2022-10-04T02:59:33.535Z,1.90
2022-10-04T03:02:29.101Z,1.80
2022-10-04T03:05:07.122Z,1.80
2022-10-04T03:07:39.278Z,1.70
2022-10-04T03:10:13.386Z,1.70
2022-10-04T03:12:46.278Z,1.70
2022-10-04T03:15:16.504Z,1.60
2022-10-04T03:17:47.239Z,1.60
2022-10-04T03:20:21.805Z,1.60
2022-10-04T03:23:02.679Z,1.70
2022-10-04T03:25:39.709Z,1.70
2022-10-04T03:28:11.645Z,1.70
2022-10-04T03:30:46.712Z,1.90
2022-10-04T03:33:21.566Z,1.80
2022-10-04T03:35:55.755Z,1.80
2022-10-04T03:38:27.351Z,1.70
2022-10-04T03:41:01.103Z,1.60
2022-10-04T03:43:34.938Z,1.60
2022-10-04T03:46:06.115Z,1.60
2022-10-04T03:48:40.719Z,1.50
2022-10-04T03:51:15.083Z,1.50
2022-10-04T03:53:47.114Z,1.50
2022-10-04T03:56:22.613Z,1.50
2022-10-04T03:58:55.037Z,1.40
2022-10-04T04:01:38.278Z,1.40
2022-10-04T04:04:20.318Z,1.30
2022-10-04T04:06:58.149Z,1.30
2022-10-04T04:09:33.564Z,1.30
2022-10-04T04:12:07.172Z,1.20
2022-10-04T04:14:41.387Z,1.20
2022-10-04T04:17:32.779Z,1.10
2022-10-04T04:20:07.449Z,1.10
2022-10-04T04:22:38.566Z,1.20
2022-10-04T04:25:13.953Z,1.20
2022-10-04T04:27:46.172Z,1.20
2022-10-04T04:30:20.851Z,1.20
2022-10-04T04:32:54.820Z,1.30
2022-10-04T04:35:27.198Z,1.20
2022-10-04T04:38:19.601Z,1.30
2022-10-04T04:40:50.157Z,1.30
2022-10-04T04:43:22.288Z,1.20
2022-10-04T04:46:22.248Z,1.20
2022-10-04T04:48:47.322Z,1.00
2022-10-04T04:51:24.300Z,1.10
2022-10-04T04:53:56.807Z,1.00
2022-10-04T04:56:29.891Z,0.90
2022-10-04T04:59:03.253Z,0.90
2022-10-04T05:01:37.823Z,0.90
2022-10-04T05:04:19.579Z,0.80
2022-10-04T05:06:51.386Z,0.80
2022-10-04T05:09:26.929Z,0.80
2022-10-04T05:11:59.819Z,0.90
2022-10-04T05:14:32.380Z,1.00
2022-10-04T05:17:04.369Z,1.10
2022-10-04T05:19:38.203Z,1.30
2022-10-04T05:22:13.925Z,1.40
2022-10-04T05:24:46.440Z,1.30
2022-10-04T05:27:19.247Z,1.20
2022-10-04T05:30:00.842Z,1.30
2022-10-04T05:32:40.807Z,1.20
2022-10-04T05:35:19.226Z,1.10
2022-10-04T05:38:01.028Z,1.10
2022-10-04T05:40:42.188Z,1.00
2022-10-04T05:43:31.059Z,0.90
2022-10-04T05:46:25.779Z,0.80
2022-10-04T05:49:00.834Z,0.80
2022-10-04T05:51:33.073Z,0.80
2022-10-04T05:54:05.605Z,0.80
2022-10-04T05:56:57.114Z,0.70
2022-10-04T05:59:43.360Z,0.70
2022-10-04T06:02:24.803Z,0.60
2022-10-04T06:05:08.033Z,0.60
2022-10-04T06:07:42.989Z,0.50
2022-10-04T06:10:39.722Z,0.40
2022-10-04T06:13:24.547Z,0.40
2022-10-04T06:16:13.852Z,0.40
2022-10-04T06:19:09.091Z,0.30
2022-10-04T06:21:49.446Z,0.30
2022-10-04T06:24:26.701Z,0.20
2022-10-04T06:27:01.657Z,0.20
2022-10-04T06:29:40.217Z,0.20
2022-10-04T06:32:41.046Z,0.10
2022-10-04T06:35:36.486Z,0.10
2022-10-04T06:38:39.697Z,0.20
2022-10-04T06:41:28.980Z,0.10
2022-10-04T06:44:15.741Z,0.10
2022-10-04T06:46:49.994Z,0.30
2022-10-04T06:49:39.982Z,0.30
2022-10-04T06:52:27.712Z,0.20
2022-10-04T06:55:23.695Z,0.20
2022-10-04T06:58:27.696Z,0.20
2022-10-04T07:01:05.503Z,0.10
2022-10-04T07:03:42.263Z,0.20
2022-10-04T07:06:13.992Z,0.30
2022-10-04T07:08:50.396Z,0.20
2022-10-04T07:11:26.558Z,0.20
2022-10-04T07:14:00.337Z,0.10
2022-10-04T07:16:40.489Z,0.10
2022-10-04T07:19:25.532Z,0.00
2022-10-04T07:22:03.517Z,0.00
2022-10-04T07:24:48.026Z,0.00
2022-10-04T07:27:24.098Z,0.00
2022-10-04T07:29:56.549Z,0.10
2022-10-04T07:32:29.859Z,0.20
2022-10-04T07:35:06.845Z,0.20
2022-10-04T07:37:47.004Z,0.10
2022-10-04T07:40:26.951Z,0.10
2022-10-04T07:43:02.842Z,0.00
2022-10-04T07:45:35.371Z,-0.10
2022-10-04T07:48:12.554Z,-0.10
2022-10-04T07:50:49.442Z,-0.20
2022-10-04T07:53:23.565Z,-0.20
2022-10-04T07:55:59.719Z,-0.30
2022-10-04T07:58:46.844Z,-0.30
2022-10-04T08:01:28.338Z,-0.30
2022-10-04T08:04:16.050Z,-0.20
2022-10-04T08:06:58.237Z,-0.30
2022-10-04T08:09:46.197Z,-0.30
2022-10-04T08:12:23.688Z,-0.30
2022-10-04T08:15:05.262Z,-0.40
2022-10-04T08:17:59.676Z,-0.40
2022-10-04T08:20:41.029Z,-0.40
2022-10-04T08:23:38.160Z,-0.50
2022-10-04T08:26:24.316Z,-0.40
2022-10-04T08:29:20.807Z,-0.40
2022-10-04T08:32:05.561Z,-0.40
2022-10-04T08:35:05.012Z,-0.50
2022-10-04T08:37:45.977Z,-0.50
2022-10-04T08:41:01.543Z,-0.50
2022-10-04T08:44:14.498Z,-0.60
2022-10-04T08:47:18.730Z,-0.60
2022-10-04T08:50:26.052Z,-0.70
2022-10-04T08:53:21.321Z,-0.70
2022-10-04T08:56:06.989Z,-0.70
2022-10-04T08:59:07.299Z,-0.70
2022-10-04T09:02:08.058Z,-0.80
2022-10-04T09:05:07.781Z,-0.90
2022-10-04T09:08:12.885Z,-1.00
2022-10-04T09:11:05.651Z,-1.20
2022-10-04T09:14:01.514Z,-1.30
2022-10-04T09:16:40.713Z,-1.30
2022-10-04T09:19:25.293Z,-1.40
2022-10-04T09:22:20.490Z,-1.40
2022-10-04T09:25:24.372Z,-1.30
2022-10-04T09:28:18.484Z,-1.30
2022-10-04T09:31:13.426Z,-1.30
2022-10-04T09:34:23.950Z,-1.20
2022-10-04T09:37:22.254Z,-1.00
2022-10-04T09:40:15.402Z,-1.00
2022-10-04T09:43:09.540Z,-1.00
2022-10-04T09:45:55.375Z,-1.00
2022-10-04T09:48:35.172Z,-1.10
2022-10-04T09:51:27.522Z,-1.10
2022-10-04T09:54:20.535Z,-1.10
2022-10-04T09:57:11.312Z,-1.00
2022-10-04T10:00:02.991Z,-0.90
2022-10-04T10:03:12.264Z,-0.60
2022-10-04T10:06:11.628Z,-0.40
2022-10-04T10:08:52.803Z,-0.40
2022-10-04T10:11:49.843Z,-0.40
2022-10-04T10:14:51.546Z,-0.60
2022-10-04T10:17:37.129Z,-0.60
2022-10-04T10:20:42.869Z,-0.70
2022-10-04T10:24:00.226Z,-0.70
2022-10-04T10:26:50.991Z,-0.70
2022-10-04T10:29:45.964Z,-0.60
2022-10-04T10:32:44.415Z,-0.50
2022-10-04T10:35:37.975Z,-0.60
2022-10-04T10:38:29.910Z,-0.70
2022-10-04T10:41:32.937Z,-0.80
2022-10-04T10:44:23.299Z,-0.90
2022-10-04T10:47:09.100Z,-1.00
2022-10-04T10:50:03.130Z,-1.00
2022-10-04T10:53:29.878Z,-1.10
2022-10-04T10:56:30.438Z,-1.00
2022-10-04T10:59:34.368Z,-1.00
2022-10-04T11:02:49.522Z,-1.00
2022-10-04T11:06:02.215Z,-1.00
2022-10-04T11:09:12.241Z,-1.10
2022-10-04T11:12:28.305Z,-1.20
2022-10-04T11:15:39.620Z,-1.10
2022-10-04T11:18:51.721Z,-1.10
2022-10-04T11:21:53.968Z,-1.10
2022-10-04T11:25:12.237Z,-1.10
2022-10-04T11:27:55.457Z,-1.10
2022-10-04T11:30:29.620Z,-1.10
2022-10-04T11:33:30.829Z,-1.10
2022-10-04T11:36:35.329Z,-1.00
2022-10-04T11:39:26.277Z,-1.00
2022-10-04T11:42:02.744Z,-0.80
2022-10-04T11:45:03.067Z,-0.70
2022-10-04T11:47:43.892Z,-0.70
2022-10-04T11:50:37.748Z,-0.60
2022-10-04T11:53:53.294Z,-0.50
2022-10-04T11:56:42.589Z,-0.40
2022-10-04T11:59:38.092Z,-0.20
2022-10-04T12:02:37.661Z,0.00
2022-10-04T12:05:43.848Z,0.20
2022-10-04T12:08:25.742Z,0.50
2022-10-04T12:11:28.298Z,0.50
2022-10-04T12:14:11.629Z,0.60
2022-10-04T12:17:29.614Z,0.70
2022-10-04T12:20:41.213Z,0.80
2022-10-04T12:23:40.914Z,0.90
2022-10-04T12:26:34.250Z,1.00
2022-10-04T12:29:33.420Z,1.20
2022-10-04T12:32:11.283Z,1.20
2022-10-04T12:34:52.940Z,1.30
2022-10-04T12:37:32.558Z,1.40
2022-10-04T12:40:21.958Z,1.70
2022-10-04T12:43:00.320Z,1.90
2022-10-04T12:45:44.888Z,2.10
2022-10-04T12:48:26.250Z,2.40
2022-10-04T12:51:04.754Z,2.50
2022-10-04T12:53:46.962Z,2.80
2022-10-04T12:56:32.871Z,3.00
2022-10-04T12:59:40.504Z,3.20
2022-10-04T13:02:27.219Z,3.40
2022-10-04T13:05:02.354Z,3.60
2022-10-04T13:08:02.095Z,3.80
2022-10-04T13:10:46.659Z,3.90
2022-10-04T13:13:38.347Z,4.10
2022-10-04T13:19:18.898Z,4.30
2022-10-04T13:22:44.352Z,4.40
2022-10-04T13:25:30.587Z,4.50
2022-10-04T13:28:07.365Z,4.70
2022-10-04T13:30:49.521Z,4.90
2022-10-04T13:33:27.139Z,5.00
2022-10-04T13:36:02.587Z,5.20
2022-10-04T13:39:07.852Z,5.30
2022-10-04T13:41:53.175Z,5.50
2022-10-04T13:45:05.776Z,5.70
2022-10-04T13:47:56.772Z,5.90
2022-10-04T13:50:47.094Z,6.10
2022-10-04T13:53:45.701Z,6.30
2022-10-04T13:56:40.830Z,6.40
2022-10-04T13:59:23.653Z,6.60
2022-10-04T14:02:33.240Z,6.80
2022-10-04T14:05:29.161Z,6.90
2022-10-04T14:08:23.367Z,7.10
2022-10-04T14:11:15.160Z,7.30
2022-10-04T14:14:14.098Z,7.40
2022-10-04T14:17:26.064Z,7.70
2022-10-04T14:20:24.846Z,7.90
2022-10-04T14:23:14.492Z,8.00
2022-10-04T14:26:19.332Z,8.10
2022-10-04T14:29:22.295Z,8.30
2022-10-04T14:32:16.224Z,8.50
2022-10-04T14:35:05.725Z,8.60
2022-10-04T14:38:26.602Z,8.70
2022-10-04T14:41:28.498Z,8.90
2022-10-04T14:44:30.490Z,9.00
2022-10-04T14:47:14.411Z,9.10
2022-10-04T14:50:00.898Z,9.20
2022-10-04T14:52:46.701Z,9.30
2022-10-04T14:55:34.251Z,9.40
2022-10-04T14:58:19.556Z,9.50
2022-10-04T15:01:07.833Z,9.50
2022-10-04T15:03:47.409Z,9.70
2022-10-04T15:06:38.737Z,9.80
2022-10-04T15:09:33.849Z,9.90
2022-10-04T15:12:40.672Z,9.90
2022-10-04T15:15:37.716Z,10.10
2022-10-04T15:18:27.035Z,10.30
2022-10-04T15:21:01.667Z,10.70
2022-10-04T15:23:40.070Z,11.00
2022-10-04T15:26:48.550Z,11.20
2022-10-04T15:29:25.191Z,11.50
2022-10-04T15:32:07.111Z,11.80
2022-10-04T15:34:47.171Z,12.00
2022-10-04T15:37:28.730Z,12.20
2022-10-04T15:40:25.982Z,12.30
2022-10-04T15:43:15.406Z,12.50
2022-10-04T15:46:27.332Z,12.70
2022-10-04T15:49:27.834Z,12.90
2022-10-04T15:52:36.494Z,13.10
2022-10-04T15:55:28.007Z,13.30
2022-10-04T15:58:24.888Z,13.40
2022-10-04T16:01:20.336Z,13.70
2022-10-04T16:04:12.885Z,14.20
2022-10-04T16:06:49.654Z,14.60
2022-10-04T16:09:29.092Z,15.20
2022-10-04T16:12:09.880Z,15.70
2022-10-04T16:15:00.942Z,16.00
2022-10-04T16:18:16.079Z,16.30
2022-10-04T16:21:09.141Z,16.30
2022-10-04T16:23:44.486Z,16.50
2022-10-04T16:26:17.443Z,16.40
2022-10-04T16:29:12.318Z,16.60
2022-10-04T16:31:53.019Z,16.50
2022-10-04T16:34:51.377Z,16.30
2022-10-04T16:37:40.738Z,16.30
2022-10-04T16:40:29.325Z,16.00
2022-10-04T16:43:04.573Z,15.60
2022-10-04T16:45:47.188Z,15.40
2022-10-04T16:48:39.782Z,15.50
2022-10-04T16:51:32.350Z,15.80
2022-10-04T16:54:13.284Z,16.40
2022-10-04T16:57:17.785Z,17.10
2022-10-04T16:59:53.922Z,17.70
2022-10-04T17:02:49.909Z,17.90
2022-10-04T17:05:49.887Z,17.60
2022-10-04T17:08:48.782Z,17.20
2022-10-04T17:11:45.454Z,16.80
2022-10-04T17:14:50.040Z,16.50
2022-10-04T17:17:26.338Z,16.10
2022-10-04T17:19:59.831Z,15.90
2022-10-04T17:22:42.992Z,15.70
2022-10-04T17:25:28.265Z,15.40
2022-10-04T17:28:04.498Z,15.40
2022-10-04T17:30:48.853Z,15.60
2022-10-04T17:33:43.340Z,16.00
2022-10-04T17:36:31.003Z,16.70
2022-10-04T17:39:13.906Z,17.30
2022-10-04T17:42:01.820Z,17.40
2022-10-04T17:44:49.000Z,17.90
2022-10-04T17:47:24.941Z,18.10
2022-10-04T17:50:21.501Z,18.40
2022-10-04T17:53:13.718Z,19.20
2022-10-04T17:55:52.732Z,19.90
2022-10-04T17:58:27.206Z,20.50
2022-10-04T18:01:08.590Z,20.80
2022-10-04T18:03:42.564Z,20.80
2022-10-04T18:06:27.585Z,20.90
2022-10-04T18:09:01.183Z,21.10
2022-10-04T18:11:44.328Z,21.30
2022-10-04T18:14:24.733Z,21.30
2022-10-04T18:16:59.710Z,21.50
2022-10-04T18:19:39.627Z,21.60
2022-10-04T18:22:15.591Z,21.50
2022-10-04T18:24:46.904Z,21.70
2022-10-04T18:27:25.992Z,21.40
2022-10-04T18:30:04.912Z,21.20
2022-10-04T18:32:38.602Z,21.10
2022-10-04T18:35:27.415Z,20.90
2022-10-04T18:38:00.579Z,21.00
2022-10-04T18:40:36.157Z,21.10
2022-10-04T18:43:28.465Z,21.30
2022-10-04T18:46:06.408Z,21.60
2022-10-04T18:48:53.212Z,21.90
2022-10-04T18:51:28.612Z,22.20
2022-10-04T18:54:22.686Z,21.70
2022-10-04T18:57:02.806Z,21.30
2022-10-04T19:00:03.216Z,21.40
2022-10-04T19:02:40.924Z,21.50
2022-10-04T19:05:19.918Z,20.90
2022-10-04T19:07:59.288Z,20.40
2022-10-04T19:10:32.544Z,19.70
2022-10-04T19:13:23.109Z,19.60
2022-10-04T19:16:22.460Z,19.60
2022-10-04T19:19:07.683Z,19.60
2022-10-04T19:21:47.765Z,19.40
2022-10-04T19:24:50.470Z,19.50
2022-10-04T19:27:28.382Z,19.80
2022-10-04T19:30:12.557Z,19.80
2022-10-04T19:33:14.703Z,19.90
2022-10-04T19:36:01.049Z,19.80
2022-10-04T19:38:52.966Z,20.10
2022-10-04T19:41:39.901Z,20.50
2022-10-04T19:44:23.846Z,20.80
2022-10-04T19:47:01.505Z,20.90
2022-10-04T19:49:44.714Z,21.10
2022-10-04T19:52:26.193Z,20.90
2022-10-04T19:55:01.815Z,20.80
2022-10-04T19:57:39.379Z,20.90
2022-10-04T20:00:15.531Z,20.90
2022-10-04T20:02:48.957Z,20.90
2022-10-04T20:05:25.433Z,20.70
2022-10-04T20:08:15.438Z,20.40
2022-10-04T20:10:46.554Z,19.80
2022-10-04T20:13:26.005Z,19.40
2022-10-04T20:16:00.545Z,19.00
2022-10-04T20:19:18.924Z,18.90
2022-10-04T20:21:51.747Z,19.00
2022-10-04T20:24:56.938Z,19.40
2022-10-04T20:28:05.815Z,19.70
2022-10-04T20:30:52.967Z,20.10
2022-10-04T20:33:47.571Z,20.40
2022-10-04T20:36:51.519Z,20.50
2022-10-04T20:40:02.827Z,20.40
2022-10-04T20:42:39.576Z,20.50
2022-10-04T20:45:28.395Z,20.30
2022-10-04T20:47:59.038Z,19.90
2022-10-04T20:50:33.943Z,19.60
2022-10-04T20:53:07.293Z,19.30
2022-10-04T20:55:40.742Z,19.40
2022-10-04T20:58:33.350Z,19.50
2022-10-04T21:01:17.568Z,19.40
2022-10-04T21:03:47.966Z,19.30
2022-10-04T21:06:18.002Z,19.00
2022-10-04T21:08:49.414Z,18.80
2022-10-04T21:11:22.412Z,18.60
2022-10-04T21:13:59.161Z,18.40
2022-10-04T21:16:47.927Z,18.20
2022-10-04T21:19:51.409Z,18.00
2022-10-04T21:23:09.686Z,17.60
2022-10-04T21:25:39.703Z,17.20
2022-10-04T21:28:35.807Z,16.90
2022-10-04T21:31:07.981Z,16.60
2022-10-04T21:33:39.187Z,16.50
2022-10-04T21:36:09.710Z,16.40
2022-10-04T21:38:39.827Z,16.10
2022-10-04T21:41:09.903Z,15.80
2022-10-04T21:43:39.944Z,15.40
2022-10-04T21:46:14.349Z,15.10
2022-10-04T21:48:46.611Z,14.80
2022-10-04T21:51:16.670Z,14.60
2022-10-04T21:53:46.775Z,14.40
2022-10-04T21:56:16.942Z,14.10
2022-10-04T21:58:51.699Z,13.90
2022-10-04T22:01:23.652Z,13.60
2022-10-04T22:03:54.638Z,13.50
2022-10-04T22:06:25.035Z,13.40
2022-10-04T22:08:56.862Z,13.30
2022-10-04T22:11:27.407Z,13.00
2022-10-04T22:13:57.426Z,12.80
2022-10-04T22:16:30.019Z,12.50
2022-10-04T22:19:00.190Z,12.30
2022-10-04T22:21:30.522Z,12.10
2022-10-04T22:24:01.115Z,12.00
2022-10-04T22:26:32.560Z,11.80
2022-10-04T22:29:02.754Z,11.60
2022-10-04T22:31:34.562Z,11.50
2022-10-04T22:34:05.877Z,11.50
2022-10-04T22:36:42.526Z,11.30
2022-10-04T22:39:17.253Z,11.10
2022-10-04T22:41:49.474Z,11.00
2022-10-04T22:44:21.773Z,10.80
2022-10-04T22:46:55.895Z,10.50
2022-10-04T22:49:28.502Z,10.30
2022-10-04T22:52:00.318Z,10.10
2022-10-04T22:54:34.434Z,9.90
2022-10-04T22:57:04.642Z,9.70
2022-10-04T22:59:38.289Z,9.40
2022-10-04T23:02:16.256Z,9.30
2022-10-04T23:04:51.655Z,9.10
2022-10-04T23:07:22.306Z,9.00
2022-10-04T23:09:52.355Z,8.80
2022-10-04T23:12:22.871Z,8.70
2022-10-04T23:14:52.997Z,8.70
2022-10-04T23:17:27.395Z,8.50
2022-10-04T23:19:58.956Z,8.50
2022-10-04T23:22:32.211Z,8.30
2022-10-04T23:25:02.933Z,8.20
2022-10-04T23:27:33.014Z,8.10
2022-10-04T23:30:04.942Z,7.90
2022-10-04T23:32:36.838Z,7.70
2022-10-04T23:35:09.495Z,7.60
2022-10-04T23:37:39.651Z,7.40
2022-10-04T23:40:12.704Z,7.30
2022-10-04T23:42:43.265Z,7.30
2022-10-04T23:45:20.258Z,7.40
2022-10-04T23:47:54.715Z,7.40
2022-10-04T23:50:28.188Z,7.40
2022-10-04T23:53:03.064Z,7.30
2022-10-04T23:55:36.539Z,7.40
2022-10-04T23:58:14.848Z,7.40
